Cooperstown, New York
Current Conditions -  °F | °C
As of 6:15 PM on Wednesday 26 Nov 2014 (Local Time) from KNY0 Reporting Station
Overcast Overcast  
Wind Chill: 29°   Ceiling: 600
Heat Index: 29°   Visibility: 0.75mi
Dew Point: 28°   Wind: 0mph
Humidity: 97%   Direction: NA
Pressure: 29.95"   Gusts: NA
Location:  42.7°N, 74.92°W
Report Text: KNY0 262315Z AUTO 00000KT 3/4SM OVC006 M02/M02 A2995 RMK AO2 P0002 T10171021
Loading
Personal Weather Stations






























Interactive Weather Map New forecast layout! Learn more

10-Day Weather Forecast

Advertisements
Track Severe Weather on mobile